Terminal Aerodrome Forecast
Issued by NWS

Home | Current Version | Previous Version | Text Only | Print | Product List | Glossary On
Versions: 1 2 3 4 5 6 7 8 9 10 11 12 13 14 15 16 17 18 19 20
000
FTUS41 KBGM 241158 AAA
TAFELM
TAF AMD
KELM 241158Z 2412/2512 00000KT P6SM BKN015
      TEMPO 2412/2413 1/2SM FG VV002
     FM241400 20008KT P6SM SCT040
     FM250100 VRB03KT P6SM SCT040 BKN250
     FM250800 VRB03KT P6SM BKN040 BKN100=

USA.gov is the U.S. government's official web portal to all federal, state and local government web resources and services.